Time;durP1;ratioP1;P1;durP2;ratioP2;P2;SDS_P1;SDS_P2;PMS_P1;PMS_P2;Temp;Humidity;BMP_temperature;BMP_pressure;BME280_temperature;BME280_humidity;BME280_pressure;Samples;Min_cycle;Max_cycle;Signal;HPM_P1;HPM_P2
2022/05/04 00:03:47;;;;;;;7.47;4.20;;;;;;;13.25;61.08;99794.97;7658983;32;39761;-72
2022/05/04 00:08:04;;;;;;;5.25;3.67;;;;;;;12.93;61.82;99796.34;7658941;32;38604;-72
2022/05/04 00:12:20;;;;;;;6.12;3.95;;;;;;;13.12;60.94;99793.72;7659156;32;36991;-72
2022/05/04 00:16:36;;;;;;;6.87;3.90;;;;;;;12.77;61.87;99792.94;7659127;32;39305;-72
2022/05/04 00:20:52;;;;;;;6.10;3.87;;;;;;;12.75;62.23;99801.44;7658968;32;39977;-71
2022/05/04 00:25:09;;;;;;;4.62;3.30;;;;;;;12.96;61.72;99801.25;7658609;32;37864;-72
2022/05/04 00:29:26;;;;;;;6.72;4.05;;;;;;;12.94;61.55;99792.53;7658866;32;37860;-72
2022/05/04 00:33:42;;;;;;;7.22;3.92;;;;;;;12.86;61.62;99801.34;7658642;32;39290;-71
2022/05/04 00:37:58;;;;;;;6.57;3.87;;;;;;;12.95;61.29;99794.97;7658810;32;40740;-72
2022/05/04 00:42:19;;;;;;;7.60;4.18;;;;;;;13.05;60.35;99791.31;7658241;32;37906;-71
2022/05/04 00:46:35;;;;;;;5.72;3.80;;;;;;;12.78;61.15;99794.59;7658759;32;37935;-72
2022/05/04 00:50:52;;;;;;;6.07;3.87;;;;;;;12.74;61.10;99794.31;7658217;32;39379;-72
2022/05/04 00:55:09;;;;;;;6.85;4.55;;;;;;;12.80;61.15;99797.84;7658569;32;39878;-72
2022/05/04 00:59:26;;;;;;;5.95;3.75;;;;;;;13.06;60.36;99790.22;7657354;32;37975;-72
2022/05/04 01:03:42;;;;;;;6.50;4.10;;;;;;;13.18;59.53;99786.25;7658529;32;37022;-72
2022/05/04 01:07:58;;;;;;;5.25;3.97;;;;;;;12.87;60.34;99787.37;7657822;32;39351;-72
2022/05/04 01:12:15;;;;;;;9.38;3.95;;;;;;;12.76;61.08;99794.87;7658406;32;40127;-72
2022/05/04 01:16:33;;;;;;;6.65;4.07;;;;;;;12.88;60.62;99805.44;7658245;32;38608;-72
2022/05/04 01:20:49;;;;;;;7.25;4.03;;;;;;;12.73;60.78;99800.91;7658173;32;37071;-72
2022/05/04 01:25:06;;;;;;;6.47;4.18;;;;;;;12.86;60.23;99795.87;7658160;32;39954;-72
2022/05/04 01:29:22;;;;;;;7.32;3.62;;;;;;;13.06;59.76;99795.69;7658156;32;40006;-71
2022/05/04 01:33:39;;;;;;;6.80;3.62;;;;;;;13.20;59.62;99789.56;7658017;32;38938;-72
2022/05/04 01:37:55;;;;;;;5.85;3.90;;;;;;;13.01;60.20;99786.72;7658205;32;37696;-72
2022/05/04 01:42:15;;;;;;;8.70;4.03;;;;;;;12.98;60.43;99787.28;7661254;32;39074;-72
2022/05/04 01:46:32;;;;;;;7.18;4.75;;;;;;;12.68;61.31;99795.47;7670705;32;39860;-71
2022/05/04 01:50:48;;;;;;;6.10;4.07;;;;;;;12.48;61.90;99801.91;7683551;32;38076;-72
2022/05/04 01:55:05;;;;;;;6.50;3.90;;;;;;;12.59;60.97;99791.72;7684286;32;37083;-72
2022/05/04 01:59:21;;;;;;;6.03;3.78;;;;;;;12.69;60.83;99799.81;7684334;32;39154;-72
2022/05/04 02:03:37;;;;;;;6.93;4.10;;;;;;;12.52;61.27;99799.41;7684106;32;40013;-72
2022/05/04 02:07:55;;;;;;;6.60;3.47;;;;;;;12.69;60.06;99801.75;7682554;32;37970;-72
2022/05/04 02:12:12;;;;;;;5.43;3.50;;;;;;;12.79;60.12;99796.19;7683918;32;37930;-72
2022/05/04 02:16:30;;;;;;;5.18;3.37;;;;;;;12.75;59.84;99798.69;7683823;32;40103;-72
2022/05/04 02:20:47;;;;;;;7.32;3.70;;;;;;;12.59;60.45;99789.00;7676158;32;40695;-72
2022/05/04 02:25:03;;;;;;;6.93;4.10;;;;;;;12.67;59.97;99796.56;7657260;32;37653;-72
2022/05/04 02:29:19;;;;;;;5.40;3.55;;;;;;;12.59;60.28;99802.66;7657081;32;37003;-72
2022/05/04 02:33:36;;;;;;;6.18;3.75;;;;;;;12.91;59.28;99793.91;7656880;32;39406;-72
2022/05/04 02:37:55;;;;;;;5.53;3.75;;;;;;;12.62;60.04;99798.53;7657105;32;40013;-72
2022/05/04 02:42:12;;;;;;;5.93;3.92;;;;;;;12.81;59.59;99801.38;7682171;32;37954;-71
2022/05/04 02:46:34;;;;;;;7.33;4.33;;;;;;;12.66;60.40;99794.94;7683183;32;37040;-72
2022/05/04 02:50:50;;;;;;;6.93;3.97;;;;;;;12.22;62.31;99806.72;7681579;32;40084;-72
2022/05/04 02:55:07;;;;;;;5.65;4.03;;;;;;;12.43;61.19;99809.34;7682857;32;39929;-72
2022/05/04 02:59:23;;;;;;;5.57;3.90;;;;;;;12.68;60.40;99800.94;7682806;32;38452;-72
2022/05/04 03:03:39;;;;;;;7.05;3.90;;;;;;;12.61;60.47;99810.56;7682649;32;37813;-72
2022/05/04 03:07:55;;;;;;;7.30;4.20;;;;;;;12.98;59.06;99814.66;7682627;32;39376;-72
2022/05/04 03:12:12;;;;;;;5.93;4.12;;;;;;;12.23;61.70;99822.03;7682507;32;39888;-71
2022/05/04 03:16:28;;;;;;;6.07;4.03;;;;;;;12.13;62.32;99827.56;7682307;32;37919;-72
2022/05/04 03:20:44;;;;;;;7.07;4.12;;;;;;;12.16;61.69;99821.53;7675521;32;35103;-72
2022/05/04 03:25:00;;;;;;;6.40;4.25;;;;;;;12.20;61.69;99839.00;7655928;32;40107;-72
2022/05/04 03:29:16;;;;;;;6.43;4.07;;;;;;;12.20;61.63;99820.66;7656214;32;40902;-72
2022/05/04 03:33:32;;;;;;;6.40;4.30;;;;;;;12.11;61.99;99838.75;7659375;32;37850;-71
2022/05/04 03:37:48;;;;;;;5.97;3.90;;;;;;;12.24;61.33;99839.25;7659513;32;38573;-71
2022/05/04 03:42:05;;;;;;;7.15;4.45;;;;;;;12.56;59.50;99831.38;7684851;32;39259;-72
2022/05/04 03:46:26;;;;;;;6.03;4.15;;;;;;;12.26;61.08;99829.66;7685791;32;39765;-72
2022/05/04 03:50:45;;;;;;;7.78;3.83;;;;;;;12.65;59.80;99823.38;7683946;32;38711;-72
2022/05/04 03:55:01;;;;;;;5.25;3.85;;;;;;;12.51;60.14;99847.03;7685800;32;36408;-71
2022/05/04 03:59:17;;;;;;;4.95;3.72;;;;;;;12.35;60.98;99841.63;7685743;32;39113;-72
2022/05/04 04:03:33;;;;;;;6.93;3.95;;;;;;;12.68;60.39;99832.97;7685650;32;40774;-72
2022/05/04 04:07:50;;;;;;;6.40;4.20;;;;;;;12.56;60.64;99838.78;7685415;32;38667;-72
2022/05/04 04:12:07;;;;;;;6.03;3.70;;;;;;;12.51;61.09;99838.81;7685449;32;37146;-72
2022/05/04 04:16:23;;;;;;;8.65;4.35;;;;;;;12.40;61.25;99843.53;7685419;32;39925;-71
2022/05/04 04:25:13;;;;;;;6.37;3.90;;;;;;;12.48;62.00;99853.03;7685412;32;37882;-72
2022/05/04 04:29:29;;;;;;;6.43;4.12;;;;;;;12.54;61.85;99855.47;7685215;32;37020;-72
2022/05/04 04:33:46;;;;;;;7.18;4.20;;;;;;;13.00;60.15;99848.81;7685059;32;39333;-72
2022/05/04 04:38:02;;;;;;;6.10;3.85;;;;;;;12.66;61.64;99863.31;7661671;32;40812;-72
2022/05/04 04:42:18;;;;;;;6.18;3.85;;;;;;;12.73;61.72;99858.34;7657858;32;37943;-72
2022/05/04 04:46:34;;;;;;;6.97;3.92;;;;;;;12.91;61.32;99864.25;7658738;32;37028;-72
2022/05/04 04:50:51;;;;;;;10.07;4.85;;;;;;;12.62;62.66;99875.09;7658483;32;40526;-72
2022/05/04 04:55:13;;;;;;;7.72;5.15;;;;;;;12.33;63.64;99887.59;7658539;32;40659;-72
2022/05/04 04:59:29;;;;;;;9.85;4.20;;;;;;;12.59;63.40;99882.78;7658445;32;38567;-72
2022/05/04 05:03:45;;;;;;;8.55;5.32;;;;;;;12.42;65.11;99892.44;7658457;32;37266;-72
2022/05/04 05:08:01;;;;;;;8.23;5.43;;;;;;;12.51;65.50;99888.84;7658476;32;39270;-72
2022/05/04 05:12:17;;;;;;;8.05;5.12;;;;;;;12.75;64.92;99888.97;7658497;32;39919;-72
2022/05/04 05:16:33;;;;;;;7.28;5.05;;;;;;;12.81;64.15;99894.41;7659007;32;38121;-72
2022/05/04 05:20:51;;;;;;;9.00;5.55;;;;;;;12.66;65.12;99893.41;7675433;32;36696;-72
2022/05/04 05:25:10;;;;;;;8.05;4.97;;;;;;;12.83;65.36;99898.50;7658426;32;40020;-72
2022/05/04 05:29:26;;;;;;;9.23;5.03;;;;;;;13.15;64.34;99897.16;7658152;32;39976;-72
2022/05/04 05:33:45;;;;;;;8.88;5.20;;;;;;;13.67;62.46;99897.53;7657921;32;38626;-72
2022/05/04 05:38:01;;;;;;;8.93;5.22;;;;;;;13.80;61.63;99896.84;7658187;32;36826;-73
2022/05/04 05:42:17;;;;;;;8.90;4.87;;;;;;;13.90;61.19;99906.88;7657847;32;39264;-72
2022/05/04 05:46:33;;;;;;;11.15;4.62;;;;;;;14.46;59.84;99924.59;7657991;32;40758;-72
2022/05/04 05:50:51;;;;;;;9.82;4.25;;;;;;;14.33;61.04;99919.81;7666946;32;38809;-72
2022/05/04 05:55:07;;;;;;;7.00;4.55;;;;;;;14.76;60.15;99909.66;7684251;32;36828;-72
2022/05/04 05:59:23;;;;;;;7.85;4.37;;;;;;;14.99;58.59;99910.69;7683350;32;39969;-71
2022/05/04 06:03:39;;;;;;;8.77;4.12;;;;;;;15.02;58.55;99915.59;7663905;32;38434;-73
2022/05/04 06:07:55;;;;;;;8.48;3.87;;;;;;;14.37;57.45;99905.22;7657136;32;38690;-74
2022/05/04 06:12:17;;;;;;;7.57;4.62;;;;;;;14.58;58.06;99904.94;7657693;32;36924;-73
2022/05/04 06:16:33;;;;;;;10.55;4.12;;;;;;;14.61;56.97;99904.41;7657550;32;39252;-73
2022/05/04 06:20:49;;;;;;;11.18;4.68;;;;;;;15.44;55.13;99909.44;7667463;32;39995;-72
2022/05/04 06:25:06;;;;;;;6.25;3.97;;;;;;;15.19;56.92;99919.69;7683032;32;37793;-83
2022/05/04 06:34:06;;;;;;;6.35;4.32;;;;;;;14.90;57.80;99917.13;7681794;32;37834;-79
2022/05/04 06:34:10;;;;;;;8.20;3.92;;;;;;;15.12;55.53;99919.28;7682268;32;39754;-73
2022/05/04 06:38:27;;;;;;;6.78;4.05;;;;;;;15.22;54.79;99913.62;7682964;32;41286;-73
2022/05/04 06:42:44;;;;;;;7.85;3.97;;;;;;;15.73;54.77;99917.44;7683357;32;38629;-73
2022/05/04 06:47:00;;;;;;;7.55;3.97;;;;;;;15.81;54.44;99926.91;7676600;32;37865;-73
2022/05/04 06:51:16;;;;;;;9.20;4.35;;;;;;;16.04;53.14;99936.94;7665041;32;40148;-73
2022/05/04 06:55:32;;;;;;;5.15;3.50;;;;;;;16.29;52.62;99924.59;7675364;32;40010;-73
2022/05/04 06:59:48;;;;;;;7.12;3.95;;;;;;;16.50;53.29;99924.97;7682826;32;38715;-73
2022/05/04 07:04:05;;;;;;;8.05;3.55;;;;;;;17.06;53.90;99919.38;7667725;32;37851;-73
2022/05/04 07:08:21;;;;;;;7.68;4.30;;;;;;;17.80;52.87;99909.78;7659022;32;39194;-73
2022/05/04 07:12:37;;;;;;;8.52;3.00;;;;;;;17.91;53.40;99915.84;7659250;32;39711;-73
2022/05/04 07:16:53;;;;;;;10.98;4.00;;;;;;;18.12;51.65;99910.56;7658496;32;38746;-73
2022/05/04 07:21:09;;;;;;;7.65;3.37;;;;;;;18.62;51.12;99912.97;7671483;32;37868;-73
2022/05/04 07:25:25;;;;;;;9.80;3.78;;;;;;;18.75;50.09;99909.25;7679624;32;39974;-73
2022/05/04 07:29:46;;;;;;;11.32;3.95;;;;;;;18.02;51.31;99919.94;7677799;32;37944;-74
2022/05/04 07:34:03;;;;;;;6.80;3.42;;;;;;;18.28;50.79;99909.00;7667639;32;38627;-73
2022/05/04 07:38:19;;;;;;;5.72;3.20;;;;;;;18.18;50.91;99920.34;7659760;32;36978;-73
2022/05/04 07:42:35;;;;;;;6.03;3.35;;;;;;;18.69;50.40;99920.75;7659527;32;39858;-79
2022/05/04 07:46:51;;;;;;;6.30;3.62;;;;;;;18.16;51.32;99930.84;7659511;32;39876;-73
2022/05/04 07:51:07;;;;;;;6.50;3.50;;;;;;;18.49;51.64;99935.97;7659234;32;38098;-75
2022/05/04 07:55:24;;;;;;;4.80;3.30;;;;;;;18.58;49.78;99934.88;7659480;32;38050;-75
2022/05/04 07:59:40;;;;;;;6.12;3.30;;;;;;;19.40;48.87;99931.50;7668693;32;40101;-75
2022/05/04 08:08:44;;;;;;;7.07;3.78;;;;;;;19.79;49.89;99921.34;7633123;32;37841;-75
2022/05/04 08:13:01;;;;;;;4.50;3.12;;;;;;;19.48;46.89;99927.91;7659125;32;37740;-74
2022/05/04 08:17:19;;;;;;;7.53;3.37;;;;;;;19.42;47.77;99931.16;7658173;32;39693;-73
2022/05/04 08:21:38;;;;;;;4.95;3.28;;;;;;;19.87;45.93;99923.28;7660692;32;39925;-75
2022/05/04 08:25:55;;;;;;;5.30;3.20;;;;;;;19.88;44.74;99921.31;7658934;32;38017;-74
2022/05/04 08:30:11;;;;;;;4.12;2.67;;;;;;;20.21;43.40;99929.84;7672765;32;37347;-74
2022/05/04 08:34:27;;;;;;;4.25;2.92;;;;;;;20.65;42.17;99923.25;7682219;32;39039;-73
2022/05/04 08:38:44;;;;;;;3.78;2.70;;;;;;;21.11;40.87;99930.56;7658668;32;40869;-74
2022/05/04 08:43:05;;;;;;;5.20;2.97;;;;;;;21.35;39.89;99924.31;7658629;32;37962;-74
2022/05/04 08:47:22;;;;;;;4.95;2.90;;;;;;;21.20;40.35;99924.94;7657357;32;37651;-74
2022/05/04 08:51:38;;;;;;;4.97;2.40;;;;;;;21.61;39.59;99928.81;7658668;32;40199;-74
2022/05/04 08:55:55;;;;;;;3.92;2.45;;;;;;;21.57;37.55;99931.41;7658618;32;39739;-74
2022/05/04 09:00:11;;;;;;;6.37;2.55;;;;;;;22.05;36.85;99923.53;7658627;32;37944;-74
2022/05/04 09:04:31;;;;;;;2.87;1.80;;;;;;;22.49;36.06;99929.34;7658856;32;37112;-74
2022/05/04 09:08:57;;;;;;;3.75;1.87;;;;;;;22.65;33.77;99934.19;7658739;32;39166;-74
2022/05/04 09:13:17;;;;;;;2.58;1.80;;;;;;;22.85;35.75;99926.84;7658620;32;39874;-74
2022/05/04 09:17:33;;;;;;;4.32;2.28;;;;;;;23.19;33.27;99931.06;7658446;32;38533;-74
2022/05/04 09:21:49;;;;;;;2.87;2.20;;;;;;;23.31;33.52;99918.28;7658629;32;37864;-74
2022/05/04 09:26:06;;;;;;;3.20;1.90;;;;;;;23.54;32.60;99929.62;7658523;32;39357;-74
2022/05/04 09:30:25;;;;;;;3.90;2.30;;;;;;;24.27;33.45;99924.75;7657861;32;41683;-75
2022/05/04 09:34:41;;;;;;;2.00;1.80;;;;;;;24.27;32.83;99916.41;7658123;32;37892;-75
2022/05/04 09:48:12;;;;;;;3.75;2.05;;;;;;;25.05;30.06;99909.00;7658120;32;39919;-75
2022/05/04 09:52:40;;;;;;;3.05;1.80;;;;;;;25.47;29.63;99905.47;7658031;32;38555;-75
2022/05/04 09:56:58;;;;;;;3.40;1.90;;;;;;;25.90;30.06;99901.81;7658324;32;37697;-75
2022/05/04 10:01:14;;;;;;;1.75;1.60;;;;;;;25.64;27.19;99898.59;7658054;32;39414;-75
2022/05/04 10:05:33;;;;;;;2.75;1.70;;;;;;;25.98;27.47;99906.38;7657883;32;41005;-75
2022/05/04 10:09:51;;;;;;;2.92;1.80;;;;;;;25.83;27.51;99900.50;7656694;32;38653;-75
2022/05/04 10:14:15;;;;;;;2.30;1.77;;;;;;;25.86;27.28;99899.78;7657809;32;37104;-75
2022/05/04 10:18:32;;;;;;;2.58;1.92;;;;;;;25.62;28.03;99887.00;7657829;32;39937;-75
2022/05/04 10:23:07;;;;;;;2.58;1.50;;;;;;;26.15;27.32;99880.72;7656372;32;40726;-75
2022/05/04 10:27:27;;;;;;;2.25;1.35;;;;;;;26.34;25.99;99873.44;7656415;32;38763;-75
2022/05/04 10:31:54;;;;;;;2.70;1.77;;;;;;;26.49;25.78;99860.44;7657397;32;37793;-75
2022/05/04 10:36:19;;;;;;;3.53;1.95;;;;;;;26.43;25.07;99859.97;7657199;32;39353;-75
2022/05/04 10:40:37;;;;;;;5.05;1.83;;;;;;;26.78;26.55;99864.44;7657583;32;40120;-75
2022/05/04 10:44:54;;;;;;;2.17;1.87;;;;;;;26.73;25.21;99857.22;7660228;32;37771;-75
2022/05/04 10:49:13;;;;;;;4.62;1.92;;;;;;;27.09;24.78;99854.03;7660301;32;38109;-75
2022/05/04 10:53:33;;;;;;;2.10;1.62;;;;;;;27.73;25.72;99851.09;7660403;32;39421;-75
2022/05/04 10:57:49;;;;;;;4.97;2.10;;;;;;;28.02;23.62;99846.56;7660383;32;39776;-76
2022/05/04 11:02:25;;;;;;;4.28;1.85;;;;;;;27.61;21.49;99849.37;7659945;32;38064;-75
2022/05/04 11:06:55;;;;;;;5.57;2.00;;;;;;;26.74;22.56;99846.84;7660160;32;36995;-75
2022/05/04 11:11:12;;;;;;;2.55;1.62;;;;;;;26.76;22.33;99852.84;7660150;32;40052;-76
2022/05/04 11:15:30;;;;;;;3.10;1.77;;;;;;;26.41;23.82;99842.78;7660141;32;39988;-75
2022/05/04 11:19:49;;;;;;;3.22;1.83;;;;;;;26.51;24.43;99844.09;7659960;32;37994;-75
2022/05/04 11:24:08;;;;;;;4.85;2.10;;;;;;;26.55;23.29;99833.78;7659942;32;37216;-75
2022/05/04 11:28:24;;;;;;;3.45;2.00;;;;;;;27.24;22.51;99830.63;7659822;32;39721;-76
2022/05/04 11:32:41;;;;;;;3.95;2.22;;;;;;;27.27;22.72;99827.06;7660007;32;40929;-75
2022/05/04 11:37:01;;;;;;;2.00;1.80;;;;;;;26.70;24.41;99829.19;7659430;32;37722;-75
2022/05/04 11:41:19;;;;;;;3.58;1.73;;;;;;;27.07;23.04;99815.25;7659783;32;36840;-75
2022/05/04 11:45:36;;;;;;;4.68;1.70;;;;;;;26.91;23.36;99823.06;7659786;32;39447;-76
2022/05/04 11:49:54;;;;;;;3.67;1.95;;;;;;;27.41;22.33;99814.44;7659306;32;40048;-76
2022/05/04 11:54:11;;;;;;;3.67;1.70;;;;;;;26.89;22.84;99823.44;7659540;32;38488;-76
2022/05/04 11:58:27;;;;;;;2.47;1.90;;;;;;;26.95;22.00;99816.31;7658355;32;36753;-75
2022/05/04 12:02:44;;;;;;;22.90;3.08;;;;;;;27.47;22.36;99815.66;7658331;32;39924;-75
2022/05/04 12:07:00;;;;;;;3.28;1.80;;;;;;;27.19;23.13;99816.97;7658144;32;39998;-75
2022/05/04 12:11:17;;;;;;;2.20;1.62;;;;;;;27.20;22.36;99823.38;7659162;32;37845;-75
2022/05/04 12:15:34;;;;;;;2.10;1.70;;;;;;;27.53;24.58;99814.94;7659278;32;37052;-75
2022/05/04 12:19:51;;;;;;;3.25;1.90;;;;;;;27.11;23.43;99809.69;7662837;32;39259;-75
2022/05/04 12:24:08;;;;;;;2.95;1.70;;;;;;;27.23;24.88;99803.81;7675426;32;39551;-75
2022/05/04 12:28:24;;;;;;;6.22;2.33;;;;;;;27.88;23.00;99793.19;7660203;32;38064;-76
2022/05/04 12:37:16;;;;;;;3.72;1.92;;;;;;;26.70;23.62;99802.06;7672280;32;40916;-75
2022/05/04 12:41:33;;;;;;;2.83;2.10;;;;;;;24.97;24.35;99809.63;7667730;32;40834;-76
2022/05/04 12:45:49;;;;;;;11.00;2.35;;;;;;;25.39;26.04;99797.69;7666516;32;38412;-76
2022/05/04 12:50:06;;;;;;;4.25;2.10;;;;;;;25.17;26.96;99790.88;7660305;32;37961;-74
2022/05/04 12:54:23;;;;;;;4.53;2.15;;;;;;;24.96;27.66;99787.69;7684751;32;39440;-75
2022/05/04 12:58:40;;;;;;;4.18;2.15;;;;;;;25.48;25.22;99783.47;7684650;32;39958;-75
2022/05/04 13:02:56;;;;;;;3.83;1.98;;;;;;;25.28;25.55;99771.56;7677373;32;38012;-75
2022/05/04 13:07:12;;;;;;;6.72;2.30;;;;;;;25.03;26.22;99768.31;7658270;32;37020;-75
2022/05/04 13:11:30;;;;;;;3.22;1.90;;;;;;;25.52;26.21;99761.22;7657706;32;39383;-75
2022/05/04 13:15:47;;;;;;;4.82;2.10;;;;;;;25.67;25.85;99768.62;7658483;32;39997;-75
2022/05/04 13:20:04;;;;;;;7.57;2.22;;;;;;;26.40;24.36;99765.69;7657949;32;38634;-75
2022/05/04 13:24:20;;;;;;;4.93;2.22;;;;;;;25.86;23.76;99771.31;7658074;32;37746;-75
2022/05/04 13:28:36;;;;;;;4.12;2.37;;;;;;;26.10;24.07;99769.31;7658279;32;40035;-75
2022/05/04 13:32:53;;;;;;;5.53;2.05;;;;;;;26.10;24.28;99766.50;7664460;32;39948;-75
2022/05/04 13:37:09;;;;;;;2.97;2.03;;;;;;;26.30;22.92;99771.94;7666384;32;38709;-75
2022/05/04 13:41:26;;;;;;;3.97;2.22;;;;;;;26.42;23.43;99763.31;7664305;32;38000;-76
2022/05/04 13:45:42;;;;;;;3.65;1.90;;;;;;;26.14;23.00;99764.56;7679809;32;39465;-75
2022/05/04 13:53:14;;;;;;;3.35;1.87;;;;;;;25.87;23.41;99760.94;7665412;32;40809;-75
2022/05/04 13:54:45;;;;;;;8.40;1.80;;;;;;;25.33;23.79;99764.87;7659245;32;38653;-76
2022/05/04 13:59:02;;;;;;;4.75;1.85;;;;;;;25.80;23.57;99767.25;7666717;32;37129;-75
2022/05/04 14:03:24;;;;;;;5.00;2.15;;;;;;;24.60;25.52;99759.94;7665831;32;39273;-82
2022/05/04 14:07:42;;;;;;;3.12;2.30;;;;;;;23.87;28.02;99773.47;7684186;32;41306;-81
2022/05/04 14:11:59;;;;;;;4.75;1.98;;;;;;;23.22;29.08;99790.50;7683488;32;37902;-81
2022/05/04 14:16:16;;;;;;;3.78;2.33;;;;;;;22.73;31.84;99782.38;7671187;32;37123;-76
2022/05/04 14:20:34;;;;;;;4.00;2.30;;;;;;;22.84;34.04;99781.53;7681424;32;39373;-76
2022/05/04 14:24:50;;;;;;;2.50;1.90;;;;;;;22.95;33.89;99775.44;7675382;32;39964;-73
2022/05/04 14:29:07;;;;;;;4.60;2.35;;;;;;;22.78;34.29;99788.47;7657174;32;37665;-76
2022/05/04 14:33:23;;;;;;;5.03;2.25;;;;;;;23.42;32.73;99778.31;7674957;32;36857;-76
2022/05/04 14:37:39;;;;;;;2.87;2.20;;;;;;;24.28;30.67;99776.75;7667430;32;40035;-76
2022/05/04 14:41:56;;;;;;;7.93;2.40;;;;;;;24.60;29.77;99773.88;7663958;32;40052;-77
2022/05/04 14:46:12;;;;;;;5.70;2.45;;;;;;;25.02;29.66;99784.22;7656838;32;38057;-77
2022/05/04 14:50:31;;;;;;;2.92;2.17;;;;;;;24.82;30.66;99780.69;7674394;32;36979;-76
2022/05/04 14:54:47;;;;;;;4.95;2.50;;;;;;;24.86;31.88;99794.69;7672525;32;38012;-77
2022/05/04 14:59:04;;;;;;;3.30;2.42;;;;;;;25.02;30.40;99795.37;7682064;32;40216;-77
2022/05/04 15:07:55;;;;;;;4.05;2.20;;;;;;;24.86;30.07;99797.47;7668892;32;37119;-76
2022/05/04 15:12:12;;;;;;;5.75;1.92;;;;;;;25.45;28.49;99790.59;7657195;32;39126;-77
2022/05/04 15:16:29;;;;;;;2.83;1.80;;;;;;;25.92;29.38;99784.97;7670054;32;40051;-76
2022/05/04 15:20:45;;;;;;;2.90;2.10;;;;;;;26.28;25.81;99789.09;7670395;32;38749;-77
2022/05/04 15:25:02;;;;;;;3.62;1.83;;;;;;;26.31;27.66;99787.53;7663157;32;37823;-76
2022/05/04 15:29:21;;;;;;;8.38;1.90;;;;;;;26.68;25.96;99779.28;7666762;32;40187;-77
2022/05/04 15:33:40;;;;;;;7.32;2.05;;;;;;;26.51;28.28;99777.84;7661120;32;39665;-77
2022/05/04 15:37:56;;;;;;;3.20;1.65;;;;;;;26.88;26.24;99779.87;7673393;32;38768;-78
2022/05/04 15:42:12;;;;;;;4.10;2.28;;;;;;;27.15;25.58;99776.97;7676268;32;37038;-77
2022/05/04 15:46:29;;;;;;;2.62;1.50;;;;;;;27.06;26.17;99768.06;7683853;32;39285;-77
2022/05/04 15:50:45;;;;;;;4.43;1.55;;;;;;;26.84;25.58;99767.88;7663286;32;39904;-77
2022/05/04 15:55:02;;;;;;;7.53;2.85;;;;;;;26.81;25.96;99763.03;7671377;32;37755;-77
2022/05/04 15:59:19;;;;;;;4.32;2.03;;;;;;;26.86;25.00;99761.88;7681284;32;36967;-76
2022/05/04 16:08:09;;;;;;;4.07;2.25;;;;;;;26.24;26.42;99775.06;7661623;32;40783;-75
2022/05/04 16:12:25;;;;;;;5.00;1.80;;;;;;;26.17;27.03;99763.81;7664910;32;37939;-76
2022/05/04 16:21:41;;;;;;;4.65;2.08;;;;;;;26.26;27.07;99759.94;7675474;32;37816;-78
2022/05/04 16:25:53;;;;;;;4.20;1.87;;;;;;;26.12;26.57;99764.13;7658961;32;40862;-78
2022/05/04 16:30:11;;;;;;;2.47;1.80;;;;;;;25.99;27.11;99768.34;7658664;32;37884;-78
2022/05/04 16:34:27;;;;;;;3.75;1.50;;;;;;;25.76;27.91;99766.38;7683404;32;37416;-76
2022/05/04 16:38:43;;;;;;;3.53;1.83;;;;;;;25.41;28.53;99767.41;7658608;32;37810;-77
2022/05/04 16:42:59;;;;;;;5.70;2.08;;;;;;;25.39;28.48;99777.31;7659490;32;39947;-76
2022/05/04 16:47:16;;;;;;;3.95;2.10;;;;;;;25.35;28.88;99780.06;7662821;32;38664;-76
2022/05/04 16:51:32;;;;;;;3.00;2.08;;;;;;;25.05;30.41;99788.28;7675408;32;298452;-77
2022/05/04 16:55:48;;;;;;;2.55;2.00;;;;;;;24.77;31.89;99791.28;7664948;32;40038;-77
2022/05/04 17:00:06;;;;;;;5.55;2.35;;;;;;;24.87;32.06;99799.91;7679690;32;39935;-77
2022/05/04 17:04:22;;;;;;;9.27;2.85;;;;;;;24.08;33.61;99808.53;7671877;32;38611;-84
2022/05/04 17:08:40;;;;;;;6.90;2.72;;;;;;;23.93;36.19;99805.41;7661987;32;36780;-83
2022/05/04 17:12:57;;;;;;;4.20;2.45;;;;;;;23.43;37.87;99810.50;7657197;32;39298;-76
2022/05/04 17:17:13;;;;;;;4.80;2.33;;;;;;;23.17;36.51;99805.47;7659795;32;39914;-77
2022/05/04 17:21:29;;;;;;;7.22;3.05;;;;;;;22.55;37.89;99818.00;7673776;32;38749;-78
2022/05/04 17:25:45;;;;;;;6.05;2.60;;;;;;;22.52;38.32;99827.03;7675010;32;36879;-78
2022/05/04 17:30:01;;;;;;;8.55;2.60;;;;;;;22.55;38.14;99823.56;7684833;32;39843;-78
2022/05/04 17:38:52;;;;;;;8.52;2.40;;;;;;;21.78;39.82;99829.84;7684604;32;38935;-76
2022/05/04 17:43:08;;;;;;;4.43;2.20;;;;;;;21.54;40.05;99831.44;7684720;32;37077;-76
2022/05/04 17:47:25;;;;;;;8.32;2.62;;;;;;;21.67;39.66;99832.28;7684974;32;37546;-76
2022/05/04 17:51:41;;;;;;;4.25;2.47;;;;;;;21.44;39.93;99829.94;7684219;32;40696;-75
2022/05/04 17:55:57;;;;;;;4.97;2.30;;;;;;;21.01;40.87;99832.00;7672483;32;38696;-76
2022/05/04 18:00:14;;;;;;;6.35;2.53;;;;;;;21.08;40.62;99825.91;7658065;32;37222;-75
2022/05/04 18:04:32;;;;;;;5.97;2.40;;;;;;;20.94;40.79;99822.62;7657986;32;39352;-75
2022/05/04 18:08:48;;;;;;;2.87;2.30;;;;;;;20.72;41.06;99818.25;7657798;32;40871;-75
2022/05/04 18:13:05;;;;;;;2.75;2.22;;;;;;;20.61;41.27;99829.72;7657697;32;38662;-75
2022/05/04 18:17:21;;;;;;;4.00;2.80;;;;;;;20.47;41.61;99834.69;7664156;32;37043;-74
2022/05/04 18:21:38;;;;;;;8.27;2.60;;;;;;;20.56;41.49;99837.44;7663488;32;40193;-74
2022/05/04 18:25:54;;;;;;;5.57;2.62;;;;;;;20.39;41.66;99838.38;7668962;32;40770;-75
2022/05/04 18:30:11;;;;;;;3.70;2.67;;;;;;;20.22;41.93;99848.41;7701777;32;38626;-74
2022/05/04 18:34:28;;;;;;;6.75;2.95;;;;;;;19.68;43.67;99864.78;7681728;32;36915;-74
2022/05/04 18:38:44;;;;;;;4.32;2.67;;;;;;;19.86;42.66;99866.31;7681527;32;40025;-74
2022/05/04 18:43:01;;;;;;;4.97;2.83;;;;;;;20.05;42.59;99862.34;7683207;32;39904;-73
2022/05/04 18:47:22;;;;;;;5.68;2.92;;;;;;;20.23;42.00;99868.56;7681737;32;37846;-75
2022/05/04 18:51:38;;;;;;;4.18;2.70;;;;;;;20.06;42.54;99880.56;7683161;32;37042;-75
2022/05/04 18:55:57;;;;;;;5.93;2.87;;;;;;;19.80;43.26;99878.75;7681821;32;39309;-75
2022/05/04 19:00:14;;;;;;;4.07;2.53;;;;;;;19.60;43.86;99880.22;7682756;32;39914;-75
2022/05/04 19:04:30;;;;;;;6.45;2.85;;;;;;;19.72;43.71;99887.03;7685745;32;37878;-75
2022/05/04 19:08:46;;;;;;;7.43;2.95;;;;;;;19.51;44.49;99896.03;7685131;32;37242;-75
2022/05/04 19:13:03;;;;;;;6.40;3.12;;;;;;;19.62;44.94;99899.25;7683201;32;39302;-75
2022/05/04 19:17:20;;;;;;;5.15;2.90;;;;;;;19.51;45.31;99899.63;7671796;32;40867;-74
2022/05/04 19:21:56;;;;;;;7.35;3.37;;;;;;;19.43;45.81;99897.69;7710291;32;38287;-75
2022/05/04 19:26:12;;;;;;;4.80;2.92;;;;;;;19.20;46.63;99901.81;7704295;32;37310;-75
2022/05/04 19:30:29;;;;;;;7.28;3.55;;;;;;;18.91;47.42;99936.41;7712054;32;39299;-75
2022/05/04 19:34:45;;;;;;;6.97;3.50;;;;;;;18.22;51.57;99983.97;7711901;32;39843;-74
2022/05/04 19:39:01;;;;;;;5.62;3.60;;;;;;;18.14;50.98;99985.56;7677030;32;38486;-75
2022/05/04 19:43:18;;;;;;;5.55;3.40;;;;;;;17.95;50.76;99967.28;7670947;32;37748;-74
2022/05/04 19:47:34;;;;;;;5.47;3.25;;;;;;;18.32;49.00;99969.87;7669154;32;39436;-75
2022/05/04 19:51:51;;;;;;;8.15;3.08;;;;;;;18.34;48.34;99979.47;7672098;32;39939;-75
2022/05/04 19:56:09;;;;;;;5.90;3.50;;;;;;;18.69;47.37;99970.47;7670446;32;37934;-75
2022/05/04 20:00:25;;;;;;;7.72;3.15;;;;;;;18.64;47.56;99970.63;7671091;32;36999;-75
2022/05/04 20:04:41;;;;;;;9.52;3.15;;;;;;;18.68;47.36;99966.06;7671079;32;39044;-75
2022/05/04 20:08:58;;;;;;;5.22;2.58;;;;;;;18.52;47.66;99962.94;7669986;32;40123;-75
2022/05/04 20:13:13;;;;;;;6.90;3.10;;;;;;;18.16;48.45;99972.25;7671667;32;37953;-74
2022/05/04 20:17:30;;;;;;;4.30;3.37;;;;;;;18.19;48.09;99977.13;7657443;32;37045;-74
2022/05/04 20:21:46;;;;;;;9.95;3.72;;;;;;;18.36;47.89;99993.75;7696012;32;38496;-74
2022/05/04 20:26:02;;;;;;;5.55;2.97;;;;;;;18.38;48.37;99991.50;7693556;32;39982;-75
2022/05/04 20:30:18;;;;;;;8.20;3.33;;;;;;;18.10;49.63;99987.31;7684494;32;37980;-74
2022/05/04 20:34:34;;;;;;;4.72;2.97;;;;;;;18.24;49.36;99981.69;7684992;32;37080;-75
2022/05/04 20:39:00;;;;;;;7.12;3.37;;;;;;;18.28;49.10;99979.91;7684648;32;39191;-75
2022/05/04 20:43:17;;;;;;;5.32;3.28;;;;;;;18.35;49.01;99983.88;7685043;32;40024;-76
2022/05/04 20:47:33;;;;;;;6.82;3.50;;;;;;;18.44;48.05;100000.44;7687919;32;37651;-75
2022/05/04 20:56:23;;;;;;;4.55;3.20;;;;;;;18.52;47.84;99996.91;7705913;32;39284;-75
2022/05/04 21:00:40;;;;;;;5.70;3.37;;;;;;;18.53;47.19;100003.25;7669180;32;41517;-75